createdAt,value
2019-06-27T00:00:13.157Z,99671.89
2019-06-27T00:02:42.198Z,99670.11
2019-06-27T00:05:11.428Z,99674.08
2019-06-27T00:07:40.544Z,99682.15
2019-06-27T00:10:09.919Z,99676.61
2019-06-27T00:12:38.953Z,99678.69
2019-06-27T00:15:08.074Z,99674.64
2019-06-27T00:17:37.113Z,99668.82
2019-06-27T00:20:06.184Z,99676.22
2019-06-27T00:22:35.296Z,99667.34
2019-06-27T00:25:04.578Z,99676.20
2019-06-27T00:30:01.719Z,99671.61
2019-06-27T00:32:30.817Z,99673.26
2019-06-27T00:34:59.815Z,99673.34
2019-06-27T00:37:28.867Z,99680.95
2019-06-27T00:40:01.545Z,99683.03
2019-06-27T00:42:30.632Z,99686.05
2019-06-27T00:44:59.675Z,99678.88
2019-06-27T00:47:28.819Z,99684.70
2019-06-27T00:49:57.866Z,99686.88
2019-06-27T00:52:29.015Z,99678.35
2019-06-27T00:54:58.054Z,99688.20
2019-06-27T00:57:27.086Z,99695.61
2019-06-27T00:59:56.174Z,99693.52
2019-06-27T01:02:25.276Z,99692.27
2019-06-27T01:04:54.319Z,99692.90
2019-06-27T01:07:23.357Z,99693.31
2019-06-27T01:09:52.416Z,99694.02
2019-06-27T01:12:21.498Z,99692.84
2019-06-27T01:14:50.527Z,99697.13
2019-06-27T01:17:19.618Z,99701.98
2019-06-27T01:19:48.991Z,99696.42
2019-06-27T01:22:18.079Z,99700.12
2019-06-27T01:24:47.144Z,99704.49
2019-06-27T01:27:29.137Z,99704.17
2019-06-27T01:29:46.993Z,99695.40
2019-06-27T01:32:16.109Z,99710.16
2019-06-27T01:34:45.167Z,99710.55
2019-06-27T01:37:14.221Z,99707.21
2019-06-27T01:39:43.345Z,99707.23
2019-06-27T01:42:12.418Z,99711.52
2019-06-27T01:44:55.174Z,99710.35
2019-06-27T01:47:24.290Z,99704.50
2019-06-27T01:49:53.313Z,99711.27
2019-06-27T01:52:23.938Z,99711.17
2019-06-27T01:54:53.016Z,99710.23
2019-06-27T01:57:22.097Z,99708.03
2019-06-27T01:59:51.147Z,99714.54
2019-06-27T02:02:20.245Z,99713.11
2019-06-27T02:04:49.295Z,99718.16
2019-06-27T02:07:19.524Z,99713.13
2019-06-27T02:09:48.605Z,99717.23
2019-06-27T02:12:17.664Z,99712.80
2019-06-27T02:14:46.742Z,99717.05
2019-06-27T02:17:15.854Z,99709.38
2019-06-27T02:19:44.910Z,99716.02
2019-06-27T02:22:13.958Z,99713.81
2019-06-27T02:24:43.166Z,99711.95
2019-06-27T02:27:12.222Z,99708.50
2019-06-27T02:29:41.248Z,99703.22
2019-06-27T02:32:10.301Z,99703.12
2019-06-27T02:34:39.380Z,99705.00
2019-06-27T02:37:08.391Z,99705.36
2019-06-27T02:39:37.458Z,99702.40
2019-06-27T02:42:08.781Z,99710.30
2019-06-27T02:44:37.881Z,99706.77
2019-06-27T02:47:06.925Z,99699.28
2019-06-27T02:49:36.027Z,99702.33
2019-06-27T02:52:05.094Z,99698.97
2019-06-27T02:54:34.148Z,99699.97
2019-06-27T02:57:03.181Z,99701.42
2019-06-27T02:59:32.279Z,99709.28
2019-06-27T03:02:01.351Z,99707.32
2019-06-27T03:04:30.394Z,99712.73
2019-06-27T03:06:59.427Z,99701.64
2019-06-27T03:09:28.483Z,99703.24
2019-06-27T03:12:00.281Z,99703.43
2019-06-27T03:14:28.433Z,99707.89
2019-06-27T03:16:57.469Z,99707.77
2019-06-27T03:19:26.553Z,99705.31
2019-06-27T03:21:55.570Z,99709.89
2019-06-27T03:24:24.689Z,99709.70
2019-06-27T03:26:53.715Z,99448.31
2019-06-27T03:29:22.790Z,99714.60
2019-06-27T03:31:51.840Z,99713.25
2019-06-27T03:34:20.893Z,99705.95
2019-06-27T03:36:49.935Z,99704.92
2019-06-27T03:39:19.040Z,99703.31
2019-06-27T03:41:49.137Z,99707.95
2019-06-27T03:44:18.293Z,99712.47
2019-06-27T03:46:47.350Z,99705.52
2019-06-27T03:49:16.462Z,99711.18
2019-06-27T03:51:45.457Z,99707.95
2019-06-27T03:54:14.528Z,99708.72
2019-06-27T03:56:43.610Z,99711.60
2019-06-27T03:59:13.985Z,99711.38
2019-06-27T04:01:45.568Z,99712.95
2019-06-27T04:04:14.656Z,99714.19
2019-06-27T04:06:43.743Z,99721.46
2019-06-27T04:09:14.600Z,99720.42
2019-06-27T04:11:43.694Z,99717.77
2019-06-27T04:14:12.717Z,99713.84
2019-06-27T04:16:41.917Z,99715.33
2019-06-27T04:19:13.328Z,99721.17
2019-06-27T04:21:42.456Z,99717.14
2019-06-27T04:24:11.573Z,99719.35
2019-06-27T04:26:40.795Z,99730.45
2019-06-27T04:29:09.855Z,99726.30
2019-06-27T04:31:38.893Z,99728.75
2019-06-27T04:34:07.971Z,99732.33
2019-06-27T04:36:37.058Z,99732.86
2019-06-27T04:39:06.440Z,99746.03
2019-06-27T04:41:35.517Z,99739.92
2019-06-27T04:44:04.606Z,99743.66
2019-06-27T04:46:33.715Z,99739.10
2019-06-27T04:49:02.749Z,99744.11
2019-06-27T04:51:31.802Z,99747.95
2019-06-27T04:54:00.844Z,99742.84
2019-06-27T04:56:29.925Z,99750.78
2019-06-27T04:58:58.989Z,99748.80
2019-06-27T05:01:28.040Z,99749.11
2019-06-27T05:03:57.106Z,99752.00
2019-06-27T05:06:26.150Z,99756.17
2019-06-27T05:08:55.200Z,99757.97
2019-06-27T05:11:24.273Z,99761.20
2019-06-27T05:13:53.368Z,99768.61
2019-06-27T05:16:22.401Z,99765.37
2019-06-27T05:18:51.415Z,99770.09
2019-06-27T05:21:20.493Z,99773.53
2019-06-27T05:23:50.378Z,99779.73
2019-06-27T05:26:19.453Z,99774.73
2019-06-27T05:28:48.484Z,99778.89
2019-06-27T05:31:17.565Z,99793.88
2019-06-27T05:33:46.583Z,99788.57
2019-06-27T05:36:15.687Z,99794.16
2019-06-27T05:38:44.658Z,99800.03
2019-06-27T05:41:13.746Z,99793.77
2019-06-27T05:43:42.740Z,99788.88
2019-06-27T05:46:11.842Z,99790.30
2019-06-27T05:48:40.925Z,99796.80
2019-06-27T05:51:09.923Z,99802.87
2019-06-27T05:53:38.943Z,99808.30
2019-06-27T05:56:11.120Z,99806.33
2019-06-27T05:58:40.146Z,99806.40
2019-06-27T06:01:09.209Z,99803.44
2019-06-27T06:03:38.264Z,99801.19
2019-06-27T06:06:07.287Z,99802.28
2019-06-27T06:08:36.429Z,99802.80
2019-06-27T06:11:05.434Z,99807.91
2019-06-27T06:13:34.547Z,99814.73
2019-06-27T06:16:03.600Z,99806.91
2019-06-27T06:18:32.644Z,99812.53
2019-06-27T06:21:01.657Z,99806.16
2019-06-27T06:23:30.671Z,99811.86
2019-06-27T06:25:59.702Z,99825.00
2019-06-27T06:28:28.715Z,99820.42
2019-06-27T06:30:57.786Z,99815.30
2019-06-27T06:33:26.802Z,99817.14
2019-06-27T06:35:55.895Z,99818.73
2019-06-27T06:38:25.003Z,99820.52
2019-06-27T06:40:54.046Z,99823.77
2019-06-27T06:43:23.157Z,99823.96
2019-06-27T06:45:53.738Z,99824.04
2019-06-27T06:48:22.805Z,99836.16
2019-06-27T06:50:51.859Z,99824.71
2019-06-27T06:53:20.879Z,99824.37
2019-06-27T06:55:49.852Z,99824.55
2019-06-27T06:58:18.929Z,99823.69
2019-06-27T07:01:01.090Z,99824.09
2019-06-27T07:03:18.692Z,99824.09
2019-06-27T07:05:47.737Z,99823.41
2019-06-27T07:08:16.828Z,99825.34
2019-06-27T07:10:46.019Z,99821.48
2019-06-27T07:13:15.076Z,99821.36
2019-06-27T07:15:44.113Z,99824.32
2019-06-27T07:18:13.254Z,99821.14
2019-06-27T07:20:42.371Z,99821.56
2019-06-27T07:23:11.426Z,99829.59
2019-06-27T07:25:40.487Z,99823.75
2019-06-27T07:28:09.554Z,99821.69
2019-06-27T07:30:38.606Z,99820.78
2019-06-27T07:33:10.203Z,99817.09
2019-06-27T07:35:43.566Z,99824.38
2019-06-27T07:38:12.654Z,99822.28
2019-06-27T07:40:42.806Z,99811.02
2019-06-27T07:43:11.921Z,99816.51
2019-06-27T07:45:40.977Z,99824.13
2019-06-27T07:48:12.339Z,99719.52
2019-06-27T07:50:41.357Z,99820.75
2019-06-27T07:53:14.173Z,99813.72
2019-06-27T07:55:44.935Z,99823.44
2019-06-27T07:58:13.999Z,99818.72
2019-06-27T08:00:44.937Z,99816.05
2019-06-27T08:03:17.730Z,99820.92
2019-06-27T08:05:46.846Z,99807.70
2019-06-27T08:08:15.930Z,99810.39
2019-06-27T08:10:46.488Z,99811.95
2019-06-27T08:13:15.648Z,99818.17
2019-06-27T08:15:44.694Z,99823.56
2019-06-27T08:18:13.896Z,99821.50
2019-06-27T08:20:43.023Z,99820.50
2019-06-27T08:23:12.036Z,99814.07
2019-06-27T08:25:41.062Z,99810.36
2019-06-27T08:28:10.062Z,99811.14
2019-06-27T08:30:39.089Z,99812.20
2019-06-27T08:33:08.278Z,99819.95
2019-06-27T08:35:37.346Z,99812.28
2019-06-27T08:38:08.255Z,99815.12
2019-06-27T08:40:37.382Z,99815.17
2019-06-27T08:43:07.219Z,99818.70
2019-06-27T08:45:36.356Z,99816.59
2019-06-27T08:48:05.720Z,99809.83
2019-06-27T08:50:35.039Z,99813.71
2019-06-27T08:53:04.092Z,99812.20
2019-06-27T08:58:07.255Z,99812.19
2019-06-27T09:00:37.522Z,99814.56
2019-06-27T09:03:06.655Z,99809.75
2019-06-27T09:05:37.893Z,99805.82
2019-06-27T09:08:10.832Z,99813.88
2019-06-27T09:10:41.023Z,99812.75
2019-06-27T09:13:10.638Z,99807.77
2019-06-27T09:15:39.735Z,99811.48
2019-06-27T09:18:09.569Z,99812.84
2019-06-27T09:20:39.478Z,99807.99
2019-06-27T09:23:08.518Z,99808.78
2019-06-27T09:25:37.601Z,99815.05
2019-06-27T09:28:06.668Z,99802.17
2019-06-27T09:30:35.766Z,99810.44
2019-06-27T09:33:04.801Z,99803.83
2019-06-27T09:35:35.886Z,99808.56
2019-06-27T09:38:06.926Z,99808.56
2019-06-27T09:40:37.367Z,99806.38
2019-06-27T09:43:06.448Z,99804.42
2019-06-27T09:45:35.786Z,99818.87
2019-06-27T09:48:04.815Z,99812.59
2019-06-27T09:50:34.971Z,99814.62
2019-06-27T09:53:04.044Z,99598.61
2019-06-27T09:55:33.143Z,99812.70
2019-06-27T09:58:02.187Z,99803.86
2019-06-27T10:00:31.257Z,99806.14
2019-06-27T10:03:00.268Z,99808.56
2019-06-27T10:05:31.667Z,99801.27
2019-06-27T10:08:00.745Z,99803.00
2019-06-27T10:10:29.808Z,99795.23
2019-06-27T10:12:58.840Z,99793.91
2019-06-27T10:15:28.189Z,99792.83
2019-06-27T10:17:57.270Z,99792.80
2019-06-27T10:20:26.312Z,99791.17
2019-06-27T10:22:55.325Z,99785.06
2019-06-27T10:25:24.378Z,99785.97
2019-06-27T10:27:54.024Z,99790.77
2019-06-27T10:30:23.097Z,99791.73
2019-06-27T10:32:59.240Z,99785.01
2019-06-27T10:35:22.979Z,99791.00
2019-06-27T10:37:52.065Z,99792.56
2019-06-27T10:40:21.104Z,99790.43
2019-06-27T10:42:50.146Z,99792.54
2019-06-27T10:45:20.783Z,99786.13
2019-06-27T10:47:49.896Z,99791.34
2019-06-27T10:50:18.973Z,99786.48
2019-06-27T10:52:48.092Z,99785.30
2019-06-27T10:55:17.487Z,99779.53
2019-06-27T10:57:46.538Z,99783.16
2019-06-27T11:00:16.121Z,99783.38
2019-06-27T11:02:45.193Z,99780.68
2019-06-27T11:05:14.304Z,99778.52
2019-06-27T11:07:43.350Z,99780.20
2019-06-27T11:10:12.420Z,99775.95
2019-06-27T11:12:44.874Z,99764.63
2019-06-27T11:15:13.334Z,99764.42
2019-06-27T11:17:42.417Z,99767.01
2019-06-27T11:20:15.464Z,99753.22
2019-06-27T11:22:44.805Z,99755.17
2019-06-27T11:25:15.122Z,99756.97
2019-06-27T11:27:44.145Z,99747.28
2019-06-27T11:30:13.193Z,99752.22
2019-06-27T11:32:42.267Z,99748.81
2019-06-27T11:35:11.409Z,99746.30
2019-06-27T11:37:40.411Z,99748.39
2019-06-27T11:40:12.360Z,99743.52
2019-06-27T11:42:40.414Z,99740.23
2019-06-27T11:45:09.410Z,99743.02
2019-06-27T11:47:40.525Z,99739.06
2019-06-27T11:50:09.981Z,99742.53
2019-06-27T11:52:39.428Z,99737.34
2019-06-27T11:55:08.506Z,99742.55
2019-06-27T11:57:37.606Z,99740.46
2019-06-27T12:00:06.630Z,99746.70
2019-06-27T12:02:35.654Z,99735.25
2019-06-27T12:05:04.812Z,99734.45
2019-06-27T12:07:33.904Z,99738.05
2019-06-27T12:10:02.972Z,99742.75
2019-06-27T12:12:32.011Z,99732.61
2019-06-27T12:15:01.026Z,99730.77
2019-06-27T12:17:31.629Z,99726.05
2019-06-27T12:20:00.673Z,99723.11
2019-06-27T12:22:29.661Z,99734.72
2019-06-27T12:24:58.723Z,99725.48
2019-06-27T12:27:27.767Z,99728.95
2019-06-27T12:29:56.789Z,99722.84
2019-06-27T12:32:25.824Z,99720.56
2019-06-27T12:34:54.864Z,99722.17
2019-06-27T12:37:26.453Z,99724.78
2019-06-27T12:39:55.522Z,99722.33
2019-06-27T12:42:32.518Z,99723.84
2019-06-27T12:45:00.545Z,99707.95
2019-06-27T12:47:29.632Z,99710.63
2019-06-27T12:50:02.676Z,99715.92
2019-06-27T12:52:29.471Z,99706.05
2019-06-27T12:55:00.034Z,99699.10
2019-06-27T12:57:29.140Z,99700.34
2019-06-27T12:59:58.574Z,99703.89
2019-06-27T13:02:27.641Z,99705.98
2019-06-27T13:04:56.702Z,99698.97
2019-06-27T13:07:25.674Z,99697.94
2019-06-27T13:09:54.779Z,99696.68
2019-06-27T13:12:25.636Z,99686.16
2019-06-27T13:14:57.002Z,99689.51
2019-06-27T13:17:25.992Z,99689.58
2019-06-27T13:19:57.413Z,99693.55
2019-06-27T13:22:26.496Z,99684.81
2019-06-27T13:24:55.572Z,99680.20
2019-06-27T13:27:24.829Z,99682.73
2019-06-27T13:29:53.889Z,99672.98
2019-06-27T13:32:25.371Z,99670.05
2019-06-27T13:34:53.767Z,99670.49
2019-06-27T13:37:22.816Z,99663.44
2019-06-27T13:39:51.942Z,99670.62
2019-06-27T13:42:20.973Z,99671.16
2019-06-27T13:44:50.458Z,99661.20
2019-06-27T13:47:20.403Z,99658.25
2019-06-27T13:49:49.631Z,99662.61
2019-06-27T13:52:18.669Z,99656.80
2019-06-27T13:54:47.769Z,99650.76
2019-06-27T13:57:22.057Z,99659.14
2019-06-27T13:59:51.180Z,99647.73
2019-06-27T14:02:20.228Z,99649.28
2019-06-27T14:04:56.902Z,99650.72
2019-06-27T14:07:21.772Z,99640.61
2019-06-27T14:09:56.660Z,99655.16
2019-06-27T14:12:23.375Z,99638.84
2019-06-27T14:14:59.778Z,99641.39
2019-06-27T14:17:24.360Z,99637.82
2019-06-27T14:19:53.414Z,99632.28
2019-06-27T14:22:32.867Z,99636.94
2019-06-27T14:24:54.728Z,99634.48
2019-06-27T14:27:23.850Z,99631.58
2019-06-27T14:29:56.448Z,99631.36
2019-06-27T14:32:24.826Z,99637.75
2019-06-27T14:34:53.952Z,99632.58
2019-06-27T14:37:23.110Z,99625.83
2019-06-27T14:39:52.124Z,99626.19
2019-06-27T14:42:21.240Z,99625.39
2019-06-27T14:44:50.274Z,99622.88
2019-06-27T14:47:19.431Z,99616.12
2019-06-27T14:49:48.714Z,99620.64
2019-06-27T14:52:17.832Z,99621.51
2019-06-27T14:54:47.512Z,99623.58
2019-06-27T14:57:16.642Z,99620.63
2019-06-27T14:59:46.792Z,99618.05
2019-06-27T15:02:17.530Z,99620.59
2019-06-27T15:04:46.762Z,99626.37
2019-06-27T15:07:16.334Z,99623.31
2019-06-27T15:09:45.373Z,99617.06
2019-06-27T15:12:14.434Z,99615.26
2019-06-27T15:14:43.508Z,99607.02
2019-06-27T15:17:12.675Z,99609.61
2019-06-27T15:19:41.775Z,99610.84
2019-06-27T15:22:13.176Z,99607.27
2019-06-27T15:24:42.259Z,99608.08
2019-06-27T15:27:11.370Z,99608.47
2019-06-27T15:29:40.400Z,99612.34
2019-06-27T15:32:09.634Z,99606.78
2019-06-27T15:34:38.881Z,99600.70
2019-06-27T15:37:07.945Z,99611.84
2019-06-27T15:39:37.771Z,99599.59
2019-06-27T15:42:06.904Z,99596.39
2019-06-27T15:44:35.960Z,99590.32
2019-06-27T15:47:05.052Z,99593.38
2019-06-27T15:49:34.158Z,99596.50
2019-06-27T15:52:03.212Z,99593.63
2019-06-27T15:54:32.225Z,99595.69
2019-06-27T15:57:01.283Z,99591.06
2019-06-27T15:59:30.406Z,99590.45
2019-06-27T16:01:59.524Z,99589.45
2019-06-27T16:04:34.234Z,99588.15
2019-06-27T16:07:01.118Z,99585.84
2019-06-27T16:09:30.163Z,99587.78
2019-06-27T16:11:59.240Z,99586.12
2019-06-27T16:14:28.244Z,99587.53
2019-06-27T16:16:57.287Z,99581.14
2019-06-27T16:19:26.327Z,99576.95
2019-06-27T16:21:55.478Z,99581.22
2019-06-27T16:24:24.589Z,99578.67
2019-06-27T16:26:53.592Z,99580.16
2019-06-27T16:29:22.634Z,99585.02
2019-06-27T16:31:51.668Z,99576.33
2019-06-27T16:34:22.310Z,99575.95
2019-06-27T16:36:51.398Z,99583.38
2019-06-27T16:39:20.500Z,99574.56
2019-06-27T16:41:50.207Z,99573.38
2019-06-27T16:44:19.287Z,99580.13
2019-06-27T16:46:48.315Z,99577.97
2019-06-27T16:49:17.411Z,99576.98
2019-06-27T16:51:46.436Z,99579.71
2019-06-27T16:54:15.511Z,99575.08
2019-06-27T16:56:44.526Z,99578.15
2019-06-27T16:59:13.595Z,99578.27
2019-06-27T17:01:42.622Z,99581.36
2019-06-27T17:04:11.700Z,99576.61
2019-06-27T17:06:42.403Z,99585.44
2019-06-27T17:09:11.556Z,99585.77
2019-06-27T17:11:40.558Z,99582.13
2019-06-27T17:14:09.670Z,99596.19
2019-06-27T17:16:38.750Z,99589.87
2019-06-27T17:19:07.903Z,99585.06
2019-06-27T17:21:36.954Z,99587.09
2019-06-27T17:24:06.536Z,99591.88
2019-06-27T17:26:36.500Z,99590.40
2019-06-27T17:29:05.676Z,99592.41
2019-06-27T17:31:34.729Z,99599.13
2019-06-27T17:34:03.816Z,99601.75
2019-06-27T17:36:32.903Z,99600.15
2019-06-27T17:39:02.170Z,99600.44
2019-06-27T17:41:31.605Z,99595.44
2019-06-27T17:44:00.664Z,99602.86
2019-06-27T17:46:29.843Z,99606.81
2019-06-27T17:49:00.762Z,99607.77
2019-06-27T17:51:29.846Z,99609.39
2019-06-27T17:53:58.915Z,99605.13
2019-06-27T17:56:28.018Z,99611.77
2019-06-27T17:58:57.484Z,99611.00
2019-06-27T18:01:26.591Z,99606.67
2019-06-27T18:03:55.673Z,99607.16
2019-06-27T18:06:24.728Z,99610.80
2019-06-27T18:08:53.797Z,99605.84
2019-06-27T18:11:22.819Z,99626.77
2019-06-27T18:13:51.868Z,99610.01
2019-06-27T18:16:20.965Z,99612.94
2019-06-27T18:18:51.202Z,99613.63
2019-06-27T18:21:20.298Z,99619.20
2019-06-27T18:23:49.652Z,99614.82
2019-06-27T18:26:21.090Z,99620.13
2019-06-27T18:28:50.155Z,99622.02
2019-06-27T18:31:19.259Z,99620.05
2019-06-27T18:33:48.312Z,99619.94
2019-06-27T18:36:17.407Z,99619.51
2019-06-27T18:38:46.450Z,99617.63
2019-06-27T18:41:15.510Z,99623.42
2019-06-27T18:43:44.604Z,99617.52
2019-06-27T18:46:13.709Z,99619.95
2019-06-27T18:48:42.960Z,99619.37
2019-06-27T18:51:12.166Z,99611.30
2019-06-27T18:53:41.173Z,99610.07
2019-06-27T18:56:10.286Z,99618.91
2019-06-27T18:58:40.214Z,99617.83
2019-06-27T19:01:09.292Z,99620.26
2019-06-27T19:03:38.650Z,99619.59
2019-06-27T19:06:07.862Z,99622.39
2019-06-27T19:08:37.222Z,99630.15
2019-06-27T19:11:06.313Z,99620.91
2019-06-27T19:13:35.385Z,99630.08
2019-06-27T19:16:04.473Z,99620.78
2019-06-27T19:18:44.798Z,99628.72
2019-06-27T19:21:18.691Z,99629.32
2019-06-27T19:24:05.143Z,99633.38
2019-06-27T19:26:35.975Z,99630.27
2019-06-27T19:29:05.068Z,99640.80
2019-06-27T19:31:34.129Z,99640.91
2019-06-27T19:34:03.246Z,99638.55
2019-06-27T19:36:32.328Z,99637.50
2019-06-27T19:39:01.362Z,99649.47
2019-06-27T19:41:30.428Z,99645.68
2019-06-27T19:43:59.518Z,99651.17
2019-06-27T19:46:28.576Z,99654.70
2019-06-27T19:48:57.721Z,99655.84
2019-06-27T19:51:27.707Z,99654.41
2019-06-27T19:53:58.076Z,99664.67
2019-06-27T19:56:27.577Z,99663.97
2019-06-27T19:58:57.200Z,99667.42
2019-06-27T20:01:26.240Z,99664.94
2019-06-27T20:03:55.289Z,99669.76
2019-06-27T20:06:24.763Z,99673.84
2019-06-27T20:08:53.823Z,99669.66
2019-06-27T20:11:22.903Z,99671.84
2019-06-27T20:13:51.926Z,99668.81
2019-06-27T20:16:20.994Z,99664.52
2019-06-27T20:18:50.034Z,99685.17
2019-06-27T20:21:19.072Z,99686.45
2019-06-27T20:23:48.090Z,99685.98
2019-06-27T20:26:17.592Z,99683.38
2019-06-27T20:28:46.642Z,99684.73
2019-06-27T20:31:15.672Z,99693.07
2019-06-27T20:33:44.728Z,99702.00
2019-06-27T20:36:13.724Z,99698.23
2019-06-27T20:38:42.827Z,99702.95
2019-06-27T20:41:11.903Z,99708.05
2019-06-27T20:43:42.829Z,99713.13
2019-06-27T20:46:11.913Z,99708.44
2019-06-27T20:48:41.021Z,99710.69
2019-06-27T20:51:10.029Z,99715.47
2019-06-27T20:53:39.121Z,99711.84
2019-06-27T20:56:08.171Z,99714.88
2019-06-27T20:58:39.553Z,99713.92
2019-06-27T21:01:09.054Z,99717.79
2019-06-27T21:03:40.060Z,99717.59
2019-06-27T21:06:09.070Z,99719.76
2019-06-27T21:08:50.779Z,99722.52
2019-06-27T21:13:38.030Z,99725.13
2019-06-27T21:16:07.105Z,99725.35
2019-06-27T21:18:36.199Z,99726.97
2019-06-27T21:21:05.273Z,99723.30
2019-06-27T21:23:34.322Z,99724.98
2019-06-27T21:26:03.385Z,99724.34
2019-06-27T21:28:32.417Z,99733.67
2019-06-27T21:31:01.470Z,99733.67
2019-06-27T21:33:30.523Z,99726.05
2019-06-27T21:35:59.540Z,99726.05
2019-06-27T21:38:28.868Z,99736.68
2019-06-27T21:40:59.416Z,99734.70
2019-06-27T21:43:28.578Z,99738.62
2019-06-27T21:45:57.675Z,99733.83
2019-06-27T21:48:26.743Z,99741.70
2019-06-27T21:50:55.794Z,99737.98
2019-06-27T21:53:24.859Z,99744.72
2019-06-27T21:55:53.903Z,99744.72
2019-06-27T21:58:24.670Z,99736.67
2019-06-27T22:00:55.942Z,99739.57
2019-06-27T22:03:24.986Z,99744.22
2019-06-27T22:05:54.068Z,99742.66
2019-06-27T22:08:25.429Z,99738.22
2019-06-27T22:10:55.892Z,99738.45
2019-06-27T22:13:24.922Z,99732.17
2019-06-27T22:15:54.722Z,99732.17
2019-06-27T22:18:23.995Z,99737.48
2019-06-27T22:20:52.986Z,99739.40
2019-06-27T22:23:22.135Z,99739.53
2019-06-27T22:25:51.205Z,99738.38
2019-06-27T22:28:20.289Z,99735.36
2019-06-27T22:30:49.371Z,99735.80
2019-06-27T22:33:20.745Z,99734.83
2019-06-27T22:35:49.839Z,99739.55
2019-06-27T22:38:36.638Z,99739.56
2019-06-27T22:41:29.666Z,99738.28
2019-06-27T22:44:16.292Z,99739.84
2019-06-27T22:47:03.196Z,99741.36
2019-06-27T22:49:31.488Z,99743.08
2019-06-27T22:52:31.626Z,99738.36
2019-06-27T22:55:02.069Z,99737.34
2019-06-27T22:57:32.865Z,99742.98
2019-06-27T23:00:01.953Z,99740.85
2019-06-27T23:02:30.974Z,99739.50
2019-06-27T23:05:02.254Z,99738.94
2019-06-27T23:07:31.275Z,99732.05
2019-06-27T23:10:00.356Z,99735.03
2019-06-27T23:12:29.407Z,99734.33
2019-06-27T23:14:58.450Z,99736.81
2019-06-27T23:17:27.494Z,99739.63
2019-06-27T23:19:56.525Z,99740.16
2019-06-27T23:22:25.548Z,99736.55
2019-06-27T23:24:54.629Z,99738.36
2019-06-27T23:27:23.638Z,99729.56
2019-06-27T23:29:52.722Z,99730.93
2019-06-27T23:32:21.745Z,99737.58
2019-06-27T23:34:50.838Z,99744.03
2019-06-27T23:37:19.963Z,99735.39
2019-06-27T23:39:49.000Z,99735.16
2019-06-27T23:42:18.022Z,99735.30
2019-06-27T23:44:47.084Z,99739.36
2019-06-27T23:47:16.191Z,99739.77
2019-06-27T23:49:46.134Z,99739.62
2019-06-27T23:52:15.183Z,99734.23
2019-06-27T23:54:44.241Z,99732.73
2019-06-27T23:57:13.374Z,99729.14
2019-06-27T23:59:42.402Z,99725.47
